Time;durP1;ratioP1;P1;durP2;ratioP2;P2;SDS_P1;SDS_P2;PMS_P1;PMS_P2;Temp;Humidity;BMP_temperature;BMP_pressure;BME280_temperature;BME280_humidity;BME280_pressure;Samples;Min_cycle;Max_cycle;Signal;HPM_P1;HPM_P2
2020/12/31 00:00:39;;;;;;;7.00;5.50;;;3.50;80.10;;;;;;5017870;28;20448;-56
2020/12/31 00:03:04;;;;;;;6.30;5.25;;;3.60;79.80;;;;;;5029918;28;20029;-59
2020/12/31 00:05:30;;;;;;;7.22;5.38;;;3.60;79.30;;;;;;5029462;28;20124;-59
2020/12/31 00:07:55;;;;;;;5.97;5.25;;;3.60;79.30;;;;;;5006035;28;20392;-58
2020/12/31 00:10:21;;;;;;;6.85;5.28;;;3.50;79.70;;;;;;5029745;28;20441;-59
2020/12/31 00:12:47;;;;;;;7.43;5.50;;;3.50;79.70;;;;;;5027311;28;20861;-58
2020/12/31 00:15:12;;;;;;;6.88;5.22;;;3.60;79.40;;;;;;5017438;28;20050;-60
2020/12/31 00:17:38;;;;;;;7.47;5.00;;;3.60;79.40;;;;;;4994446;28;20034;-60
2020/12/31 00:20:05;;;;;;;5.57;4.97;;;3.60;79.40;;;;;;5025748;28;20040;-58
2020/12/31 00:22:31;;;;;;;6.15;5.03;;;3.50;79.50;;;;;;5034236;28;20034;-58
2020/12/31 00:24:56;;;;;;;6.80;4.82;;;3.50;79.50;;;;;;5000583;28;20443;-58
2020/12/31 00:27:22;;;;;;;8.35;5.63;;;3.60;79.40;;;;;;5034825;28;20042;-62
2020/12/31 00:29:48;;;;;;;6.25;5.53;;;3.50;79.70;;;;;;5019000;28;20085;-60
2020/12/31 00:32:13;;;;;;;7.15;5.78;;;3.50;79.50;;;;;;5015919;28;20080;-57
2020/12/31 00:34:39;;;;;;;6.68;5.10;;;3.50;79.60;;;;;;5016782;28;20068;-56
2020/12/31 00:37:04;;;;;;;9.18;5.75;;;3.50;79.60;;;;;;5034462;28;20030;-57
2020/12/31 00:39:31;;;;;;;8.57;6.32;;;3.40;80.10;;;;;;5033487;28;20113;-61
2020/12/31 00:41:57;;;;;;;7.45;6.00;;;3.40;80.40;;;;;;5034352;28;20439;-57
2020/12/31 00:44:22;;;;;;;7.30;5.97;;;3.40;80.20;;;;;;4996676;28;20092;-60
2020/12/31 00:46:48;;;;;;;7.28;6.50;;;3.40;80.30;;;;;;5014931;28;20037;-56
2020/12/31 00:49:14;;;;;;;7.57;5.97;;;3.40;80.20;;;;;;5033409;28;20088;-60
2020/12/31 00:51:39;;;;;;;8.07;6.40;;;3.40;80.20;;;;;;5033828;28;20087;-58
2020/12/31 00:54:05;;;;;;;7.97;6.60;;;3.40;80.30;;;;;;5016178;28;20042;-57
2020/12/31 00:56:30;;;;;;;8.27;6.68;;;3.40;80.50;;;;;;5034255;28;20041;-60
2020/12/31 00:59:08;;;;;;;9.07;7.07;;;3.40;80.30;;;;;;5016348;28;20041;-60
2020/12/31 01:01:34;;;;;;;8.88;6.72;;;3.40;80.30;;;;;;5033678;28;20084;-54
2020/12/31 01:03:59;;;;;;;8.70;6.60;;;3.40;80.40;;;;;;5033192;28;20060;-63
2020/12/31 01:06:25;;;;;;;7.22;5.80;;;3.50;80.20;;;;;;5015481;28;20029;-59
2020/12/31 01:08:50;;;;;;;9.60;7.55;;;3.50;80.00;;;;;;5026614;28;20034;-55
2020/12/31 01:11:17;;;;;;;8.63;6.68;;;3.50;80.00;;;;;;5024727;28;20128;-55
2020/12/31 01:13:43;;;;;;;8.23;6.85;;;3.60;79.80;;;;;;5018536;28;20033;-60
2020/12/31 01:16:11;;;;;;;8.68;7.00;;;3.50;79.90;;;;;;5048602;28;20488;-59
2020/12/31 01:18:37;;;;;;;8.90;6.93;;;3.60;79.70;;;;;;5034379;28;20040;-60
2020/12/31 01:21:09;;;;;;;8.45;6.82;;;3.60;79.80;;;;;;5046407;28;20037;-59
2020/12/31 01:23:34;;;;;;;9.13;6.85;;;3.70;79.40;;;;;;5036489;28;20038;-61
2020/12/31 01:26:00;;;;;;;8.10;6.20;;;3.70;79.10;;;;;;5049722;28;20059;-60
2020/12/31 01:28:25;;;;;;;9.13;7.30;;;3.60;79.30;;;;;;5030677;28;20045;-59
2020/12/31 01:30:51;;;;;;;9.18;6.78;;;3.60;79.60;;;;;;5036054;28;20091;-58
2020/12/31 01:33:16;;;;;;;9.20;7.03;;;3.50;79.90;;;;;;5021218;28;20045;-59
2020/12/31 01:35:42;;;;;;;8.77;7.10;;;3.50;79.80;;;;;;5031619;28;20040;-60
2020/12/31 01:38:08;;;;;;;8.02;6.78;;;3.50;80.10;;;;;;5037341;28;20045;-60
2020/12/31 01:40:33;;;;;;;9.20;7.40;;;3.40;80.30;;;;;;5033711;28;20041;-60
2020/12/31 01:42:59;;;;;;;9.27;7.18;;;3.40;80.40;;;;;;5045169;28;20508;-60
2020/12/31 01:45:24;;;;;;;8.07;6.93;;;3.50;80.40;;;;;;5042767;28;20046;-59
2020/12/31 01:47:51;;;;;;;12.10;7.70;;;3.40;80.20;;;;;;5040248;28;20037;-59
2020/12/31 01:50:18;;;;;;;10.18;7.63;;;3.50;80.10;;;;;;5042047;28;20041;-57
2020/12/31 01:52:46;;;;;;;8.43;6.57;;;3.50;80.10;;;;;;5038369;28;20092;-57
2020/12/31 01:55:12;;;;;;;9.27;7.38;;;3.50;80.10;;;;;;5018087;28;20038;-56
2020/12/31 01:57:38;;;;;;;11.00;7.60;;;3.60;80.40;;;;;;5047811;28;20044;-59
2020/12/31 02:00:04;;;;;;;9.57;7.78;;;3.60;79.90;;;;;;5024212;28;20053;-58
2020/12/31 02:02:29;;;;;;;10.68;8.00;;;3.60;79.90;;;;;;5038277;28;20041;-55
2020/12/31 02:04:57;;;;;;;10.82;7.65;;;3.60;79.90;;;;;;5034918;28;20122;-61
2020/12/31 02:07:23;;;;;;;11.68;8.52;;;3.70;79.70;;;;;;5049776;28;20579;-58
2020/12/31 02:09:48;;;;;;;10.88;8.32;;;3.70;79.70;;;;;;5036271;28;20115;-57
2020/12/31 02:12:14;;;;;;;9.32;7.38;;;3.80;79.50;;;;;;5042163;28;20201;-60
2020/12/31 02:14:51;;;;;;;9.40;8.10;;;3.80;79.30;;;;;;5035801;28;20396;-56
2020/12/31 02:17:18;;;;;;;11.85;7.78;;;3.70;79.40;;;;;;5084081;22;20045;-63
2020/12/31 02:19:44;;;;;;;9.85;8.07;;;3.80;79.40;;;;;;5086264;28;20089;-63
2020/12/31 02:22:11;;;;;;;10.10;8.10;;;3.80;79.30;;;;;;5072477;28;20124;-63
2020/12/31 02:24:37;;;;;;;9.30;7.60;;;3.80;79.10;;;;;;5086524;28;20497;-62
2020/12/31 02:27:03;;;;;;;10.90;8.27;;;3.80;79.10;;;;;;5027224;28;20045;-62
2020/12/31 02:29:29;;;;;;;10.43;8.10;;;3.80;79.30;;;;;;5044859;28;20380;-62
2020/12/31 02:31:54;;;;;;;10.98;8.90;;;3.80;79.40;;;;;;5058539;28;20107;-63
2020/12/31 02:34:20;;;;;;;10.48;8.05;;;3.70;79.60;;;;;;5055073;28;20056;-60
2020/12/31 02:36:46;;;;;;;10.23;7.82;;;3.70;79.90;;;;;;5022431;28;20044;-63
2020/12/31 02:39:13;;;;;;;11.20;8.07;;;3.80;79.70;;;;;;5068449;28;20055;-62
2020/12/31 02:41:40;;;;;;;12.30;9.05;;;3.70;80.20;;;;;;5052767;28;20036;-63
2020/12/31 02:44:06;;;;;;;11.32;8.38;;;3.60;80.30;;;;;;5051053;28;20045;-63
2020/12/31 02:46:33;;;;;;;10.80;8.40;;;3.70;80.30;;;;;;5058054;28;20082;-63
2020/12/31 02:48:59;;;;;;;9.60;7.78;;;3.60;80.60;;;;;;5054038;28;20044;-63
2020/12/31 02:51:25;;;;;;;9.13;7.72;;;3.50;81.00;;;;;;5068596;28;20044;-64
2020/12/31 02:53:51;;;;;;;9.90;7.82;;;3.60;81.10;;;;;;5058617;28;20127;-63
2020/12/31 02:56:18;;;;;;;9.85;8.20;;;3.60;80.90;;;;;;5061033;28;20120;-59
2020/12/31 02:58:45;;;;;;;8.55;7.40;;;3.50;81.10;;;;;;5031089;28;20389;-58
2020/12/31 03:01:11;;;;;;;9.07;7.60;;;3.60;80.90;;;;;;5068598;28;20043;-58
2020/12/31 03:03:37;;;;;;;10.82;7.38;;;3.60;80.60;;;;;;5055161;28;20040;-61
2020/12/31 03:06:04;;;;;;;8.85;7.53;;;3.60;80.70;;;;;;5062178;28;20064;-63
2020/12/31 03:08:30;;;;;;;13.55;9.93;;;3.70;80.40;;;;;;5061147;28;20044;-61
2020/12/31 03:10:56;;;;;;;11.15;8.55;;;3.80;80.20;;;;;;5037905;28;20037;-62
2020/12/31 03:13:28;;;;;;;9.13;7.78;;;3.70;80.30;;;;;;5051227;28;20024;-60
2020/12/31 03:15:54;;;;;;;9.93;7.43;;;3.80;80.10;;;;;;5045475;28;20037;-56
2020/12/31 03:18:20;;;;;;;9.10;7.10;;;3.70;80.40;;;;;;5060532;28;20089;-59
2020/12/31 03:20:47;;;;;;;9.27;7.53;;;3.80;80.00;;;;;;5041373;28;20098;-60
2020/12/31 03:23:14;;;;;;;8.57;7.03;;;3.90;79.60;;;;;;5064274;28;20033;-60
2020/12/31 03:25:41;;;;;;;9.20;7.10;;;3.80;79.80;;;;;;5068256;28;20122;-61
2020/12/31 03:28:08;;;;;;;8.80;6.85;;;3.80;80.00;;;;;;5061191;28;20040;-59
2020/12/31 03:30:37;;;;;;;12.18;8.05;;;3.90;79.60;;;;;;5053529;28;20029;-61
2020/12/31 03:33:04;;;;;;;11.45;8.55;;;3.90;79.70;;;;;;5045406;28;20488;-60
2020/12/31 03:35:30;;;;;;;9.73;7.65;;;3.70;80.00;;;;;;5042605;28;20031;-58
2020/12/31 03:37:56;;;;;;;7.60;6.28;;;3.80;79.80;;;;;;5031644;28;20056;-59
2020/12/31 03:40:22;;;;;;;7.90;6.50;;;3.80;79.20;;;;;;5060093;28;20029;-56
2020/12/31 03:42:48;;;;;;;7.55;6.00;;;3.80;79.20;;;;;;5041023;28;20060;-58
2020/12/31 03:45:14;;;;;;;8.73;7.00;;;3.90;78.90;;;;;;4987051;28;20037;-59
2020/12/31 03:47:39;;;;;;;7.15;6.03;;;4.00;78.80;;;;;;5068016;28;20104;-57
2020/12/31 03:50:06;;;;;;;7.30;6.13;;;3.90;79.00;;;;;;5061708;28;20452;-57
2020/12/31 03:52:32;;;;;;;7.60;5.95;;;4.00;78.60;;;;;;5038785;28;20166;-58
2020/12/31 03:54:58;;;;;;;10.45;6.22;;;4.00;78.70;;;;;;5066786;28;20044;-61
2020/12/31 03:57:24;;;;;;;6.65;5.82;;;3.90;78.70;;;;;;5056492;28;20024;-60
2020/12/31 03:59:52;;;;;;;8.75;5.90;;;4.00;78.60;;;;;;5034285;28;20476;-60
2020/12/31 04:02:18;;;;;;;9.27;6.10;;;3.90;78.10;;;;;;5053272;28;20032;-63
2020/12/31 04:04:44;;;;;;;8.43;6.70;;;3.80;78.50;;;;;;5064569;28;20036;-62
2020/12/31 04:07:09;;;;;;;10.48;8.40;;;3.70;79.00;;;;;;5053830;28;20379;-62
2020/12/31 04:09:35;;;;;;;8.60;5.95;;;3.80;79.00;;;;;;5057666;28;20028;-61
2020/12/31 04:12:01;;;;;;;7.95;6.15;;;3.80;79.00;;;;;;5062107;28;20577;-62
2020/12/31 04:14:26;;;;;;;7.20;6.03;;;3.70;79.00;;;;;;5061958;28;20052;-62
2020/12/31 04:16:52;;;;;;;9.32;6.50;;;3.70;79.20;;;;;;5055318;28;20048;-61
2020/12/31 04:19:17;;;;;;;8.43;6.00;;;3.60;79.10;;;;;;5051781;28;20493;-62
2020/12/31 04:21:43;;;;;;;7.63;6.05;;;3.60;79.10;;;;;;5065098;28;20098;-62
2020/12/31 04:24:09;;;;;;;7.40;6.35;;;3.60;79.20;;;;;;5059829;28;20028;-63
2020/12/31 04:26:34;;;;;;;7.95;6.70;;;3.60;79.50;;;;;;5058259;28;20491;-62
2020/12/31 04:29:00;;;;;;;8.93;7.05;;;3.60;79.20;;;;;;5052387;28;20041;-61
2020/12/31 04:31:25;;;;;;;9.75;7.07;;;3.50;79.30;;;;;;5046355;28;20060;-61
2020/12/31 04:33:51;;;;;;;9.75;7.15;;;3.50;79.50;;;;;;5039249;28;20411;-62
2020/12/31 04:36:17;;;;;;;11.60;8.90;;;3.50;79.70;;;;;;5061542;28;20398;-65
2020/12/31 04:38:43;;;;;;;8.07;6.53;;;3.50;79.20;;;;;;5037751;28;20040;-62
2020/12/31 04:41:11;;;;;;;7.95;6.65;;;3.50;79.00;;;;;;5067270;28;20024;-62
2020/12/31 04:43:37;;;;;;;7.60;6.50;;;3.40;79.40;;;;;;5055284;28;20045;-62
2020/12/31 04:46:06;;;;;;;9.38;7.43;;;3.50;79.30;;;;;;5062030;28;20095;-62
2020/12/31 04:48:38;;;;;;;8.80;6.63;;;3.50;79.10;;;;;;5049713;28;20103;-62
2020/12/31 04:51:07;;;;;;;10.35;7.72;;;3.40;79.30;;;;;;5067182;28;20036;-62
2020/12/31 04:53:33;;;;;;;10.02;6.95;;;3.50;79.30;;;;;;5032917;28;20113;-62
2020/12/31 04:56:01;;;;;;;8.55;6.63;;;3.40;79.10;;;;;;5041239;28;20071;-62
2020/12/31 04:58:27;;;;;;;8.88;6.57;;;3.40;79.30;;;;;;5057906;28;20063;-62
2020/12/31 05:00:52;;;;;;;9.38;6.50;;;3.50;79.10;;;;;;5066778;28;20115;-62
2020/12/31 05:03:18;;;;;;;9.07;7.00;;;3.60;79.10;;;;;;5054037;28;20044;-62
2020/12/31 05:05:44;;;;;;;7.78;6.82;;;3.50;79.00;;;;;;5060360;28;20106;-62
2020/12/31 05:08:11;;;;;;;8.55;6.95;;;3.50;79.00;;;;;;5064535;28;20036;-62
2020/12/31 05:10:37;;;;;;;12.05;7.25;;;3.50;79.10;;;;;;5066216;28;20529;-60
2020/12/31 05:13:05;;;;;;;11.10;7.05;;;3.50;78.90;;;;;;5056965;28;20044;-62
2020/12/31 05:15:43;;;;;;;9.32;7.35;;;3.50;78.90;;;;;;5057719;28;20486;-62
2020/12/31 05:18:23;;;;;;;8.02;6.70;;;3.50;79.10;;;;;;5064174;28;20033;-61
2020/12/31 05:21:00;;;;;;;11.00;7.05;;;3.60;78.90;;;;;;5064679;28;20203;-62
2020/12/31 05:23:29;;;;;;;8.43;6.88;;;3.60;79.00;;;;;;5051178;28;20083;-61
2020/12/31 05:25:56;;;;;;;7.68;6.60;;;3.60;79.00;;;;;;5043911;28;20036;-62
2020/12/31 05:28:33;;;;;;;7.72;6.93;;;3.60;78.80;;;;;;5056959;28;20435;-62
2020/12/31 05:31:02;;;;;;;7.63;5.95;;;3.70;78.80;;;;;;5071589;28;20395;-62
2020/12/31 05:33:30;;;;;;;7.97;7.10;;;3.70;78.80;;;;;;5058763;28;20029;-62
2020/12/31 05:36:24;;;;;;;7.93;6.50;;;3.70;78.50;;;;;;5062357;28;20037;-61
2020/12/31 05:39:00;;;;;;;8.25;6.80;;;3.70;78.40;;;;;;5058704;28;20053;-61
2020/12/31 05:41:36;;;;;;;9.55;7.72;;;3.80;78.40;;;;;;5042149;28;20024;-62
2020/12/31 05:44:07;;;;;;;10.18;7.95;;;3.70;78.40;;;;;;5062658;28;20423;-61
2020/12/31 05:46:37;;;;;;;10.15;9.05;;;3.70;78.30;;;;;;5059859;28;20044;-62
2020/12/31 05:49:10;;;;;;;10.95;9.15;;;3.70;78.50;;;;;;5059681;28;20052;-61
2020/12/31 05:51:39;;;;;;;11.43;9.93;;;3.70;78.00;;;;;;5068295;28;20033;-61
2020/12/31 05:54:13;;;;;;;13.95;10.70;;;3.70;78.20;;;;;;5041571;28;20052;-60
2020/12/31 05:56:43;;;;;;;12.20;10.23;;;3.60;78.50;;;;;;5067444;28;20106;-61
2020/12/31 05:59:28;;;;;;;15.32;11.05;;;3.60;78.80;;;;;;5054477;28;20029;-62
2020/12/31 06:01:58;;;;;;;13.45;10.52;;;3.60;78.80;;;;;;5061781;28;20045;-62
2020/12/31 06:04:46;;;;;;;11.20;9.35;;;3.60;78.90;;;;;;5060482;28;20086;-61
2020/12/31 06:07:33;;;;;;;11.68;9.93;;;3.60;78.80;;;;;;5069705;28;20033;-62
2020/12/31 06:10:09;;;;;;;13.50;10.68;;;3.70;78.60;;;;;;5046450;28;20036;-62
2020/12/31 06:12:55;;;;;;;13.00;11.10;;;3.70;78.20;;;;;;5060136;28;20517;-62
2020/12/31 06:15:45;;;;;;;13.48;11.38;;;3.60;78.30;;;;;;5036687;28;20040;-62
2020/12/31 06:18:18;;;;;;;12.80;11.27;;;3.60;78.30;;;;;;5062819;28;20487;-61
2020/12/31 06:20:59;;;;;;;14.20;11.43;;;3.60;78.30;;;;;;5037418;28;20401;-62
2020/12/31 06:23:37;;;;;;;13.00;10.35;;;3.60;78.40;;;;;;5040306;28;20047;-63
2020/12/31 06:26:16;;;;;;;12.90;10.70;;;3.60;78.30;;;;;;5065996;28;20429;-63
2020/12/31 06:28:48;;;;;;;13.52;10.90;;;3.60;78.50;;;;;;5050592;28;20056;-62
2020/12/31 06:31:13;;;;;;;15.02;11.20;;;3.60;78.40;;;;;;5052888;28;20048;-63
2020/12/31 06:33:46;;;;;;;13.27;10.43;;;3.50;78.60;;;;;;5066600;28;20045;-63
2020/12/31 06:36:12;;;;;;;15.90;10.27;;;3.50;78.60;;;;;;5062560;28;20037;-62
2020/12/31 06:38:41;;;;;;;11.32;9.90;;;3.60;78.30;;;;;;5060242;28;20442;-62
2020/12/31 06:41:30;;;;;;;12.30;10.15;;;3.60;78.10;;;;;;5046041;28;20025;-63
2020/12/31 06:44:08;;;;;;;11.35;9.52;;;3.60;78.10;;;;;;5065644;28;20029;-62
2020/12/31 06:46:41;;;;;;;12.13;10.32;;;3.70;78.00;;;;;;5066226;28;20503;-63
2020/12/31 06:49:08;;;;;;;13.52;10.65;;;3.70;78.00;;;;;;5054926;28;20123;-62
2020/12/31 06:51:34;;;;;;;12.30;10.57;;;3.70;77.40;;;;;;5062656;28;20037;-62
2020/12/31 06:54:00;;;;;;;11.95;10.55;;;3.60;77.60;;;;;;5067402;28;20037;-62
2020/12/31 06:56:44;;;;;;;12.55;10.13;;;3.60;77.90;;;;;;5020653;28;20075;-63
2020/12/31 06:59:32;;;;;;;12.63;9.73;;;3.60;77.70;;;;;;5069558;28;20029;-62
2020/12/31 07:02:02;;;;;;;19.80;14.90;;;3.60;77.70;;;;;;5052886;28;20127;-63
2020/12/31 07:04:35;;;;;;;12.85;11.05;;;3.60;77.60;;;;;;5072250;28;20119;-63
2020/12/31 07:07:20;;;;;;;11.90;9.60;;;3.70;77.50;;;;;;5054969;28;20071;-63
2020/12/31 07:09:57;;;;;;;9.20;8.07;;;3.60;77.60;;;;;;5068971;28;20047;-63
2020/12/31 07:12:46;;;;;;;10.07;8.02;;;3.60;77.80;;;;;;5043103;28;20044;-65
2020/12/31 07:15:17;;;;;;;10.38;7.60;;;3.50;77.60;;;;;;5069020;28;20161;-62
2020/12/31 07:17:45;;;;;;;8.98;7.35;;;3.50;77.60;;;;;;5042602;28;20039;-60
2020/12/31 07:20:13;;;;;;;10.32;7.15;;;3.50;77.70;;;;;;5037822;28;20033;-63
2020/12/31 07:22:41;;;;;;;8.55;6.93;;;3.50;77.70;;;;;;5035123;28;20028;-62
2020/12/31 07:25:12;;;;;;;9.60;7.40;;;3.50;78.30;;;;;;5053191;28;20044;-62
2020/12/31 07:27:45;;;;;;;9.05;7.50;;;3.40;78.00;;;;;;5051672;28;20518;-62
2020/12/31 07:30:15;;;;;;;12.23;9.23;;;3.50;77.70;;;;;;5053734;28;20036;-62
2020/12/31 07:32:49;;;;;;;9.30;7.72;;;3.40;77.80;;;;;;5052264;28;20056;-62
2020/12/31 07:35:31;;;;;;;9.85;7.40;;;3.50;77.80;;;;;;5059138;28;20093;-62
2020/12/31 07:38:01;;;;;;;8.90;7.90;;;3.40;77.90;;;;;;5052144;28;20036;-61
2020/12/31 07:40:41;;;;;;;9.30;7.78;;;3.40;77.80;;;;;;5060570;28;20111;-62
2020/12/31 07:43:10;;;;;;;12.10;8.30;;;3.40;78.00;;;;;;5040469;28;20036;-62
2020/12/31 07:45:36;;;;;;;13.48;9.77;;;3.40;77.80;;;;;;5067837;28;20110;-62
2020/12/31 07:48:03;;;;;;;11.73;8.23;;;3.50;77.70;;;;;;5033032;28;20052;-61
2020/12/31 07:50:29;;;;;;;10.70;7.85;;;3.40;77.70;;;;;;5035022;28;20040;-62
2020/12/31 07:52:55;;;;;;;9.35;7.93;;;3.40;77.80;;;;;;5052732;28;20059;-62
2020/12/31 07:55:21;;;;;;;10.35;7.90;;;3.50;77.90;;;;;;5074774;28;20055;-61
2020/12/31 07:57:50;;;;;;;9.93;7.95;;;3.50;77.80;;;;;;5044322;28;20028;-61
2020/12/31 08:00:18;;;;;;;9.63;8.50;;;3.40;78.10;;;;;;5054039;28;20090;-62
2020/12/31 08:02:52;;;;;;;9.98;8.48;;;3.50;78.00;;;;;;5035647;28;20036;-63
2020/12/31 08:05:22;;;;;;;10.20;8.50;;;3.50;77.60;;;;;;5055285;28;20037;-62
2020/12/31 08:07:52;;;;;;;11.38;8.98;;;3.60;77.40;;;;;;5031400;28;20137;-63
2020/12/31 08:10:19;;;;;;;17.15;13.90;;;3.60;77.30;;;;;;5059435;28;20040;-62
2020/12/31 08:12:59;;;;;;;12.70;10.18;;;3.60;77.20;;;;;;5052303;28;20052;-62
2020/12/31 08:15:26;;;;;;;12.95;11.50;;;3.60;77.30;;;;;;5062775;28;20028;-62
2020/12/31 08:17:56;;;;;;;11.60;10.20;;;3.60;77.60;;;;;;5041354;23;20103;-62
2020/12/31 08:20:29;;;;;;;15.07;10.93;;;3.60;77.60;;;;;;5031117;28;20059;-62
2020/12/31 08:22:56;;;;;;;12.57;9.90;;;3.60;77.00;;;;;;5014314;28;20029;-61
2020/12/31 08:25:24;;;;;;;13.57;11.05;;;3.70;77.00;;;;;;5030984;28;20025;-61
2020/12/31 08:27:54;;;;;;;13.10;11.05;;;3.70;76.80;;;;;;5035252;28;20056;-62
2020/12/31 08:30:20;;;;;;;13.05;10.65;;;3.80;76.70;;;;;;5013826;28;20045;-62
2020/12/31 08:32:52;;;;;;;10.63;9.13;;;3.80;76.30;;;;;;5035725;28;20455;-61
2020/12/31 08:35:29;;;;;;;13.50;10.32;;;3.80;76.20;;;;;;5049148;28;20064;-60
2020/12/31 08:38:07;;;;;;;13.32;10.57;;;3.70;76.40;;;;;;5033793;28;20071;-62
2020/12/31 08:40:49;;;;;;;11.65;10.32;;;3.70;76.60;;;;;;5051043;28;20074;-62
2020/12/31 08:43:23;;;;;;;11.55;10.05;;;3.80;76.40;;;;;;5040435;28;20059;-62
2020/12/31 08:45:50;;;;;;;11.43;8.80;;;3.80;76.00;;;;;;5050763;28;20787;-62
2020/12/31 08:48:29;;;;;;;14.35;9.73;;;3.90;75.70;;;;;;5035346;28;20025;-60
2020/12/31 08:51:08;;;;;;;11.20;9.18;;;3.80;75.70;;;;;;5023080;28;20089;-63
2020/12/31 08:53:51;;;;;;;10.32;8.45;;;3.80;75.40;;;;;;5055804;28;20416;-61
2020/12/31 08:56:18;;;;;;;11.55;8.60;;;3.80;75.80;;;;;;5046945;28;20030;-63
2020/12/31 08:58:44;;;;;;;10.77;9.68;;;3.70;76.00;;;;;;5035629;28;20018;-63
2020/12/31 09:01:26;;;;;;;11.25;8.82;;;3.70;75.80;;;;;;5037047;28;20030;-63
2020/12/31 09:04:08;;;;;;;9.80;8.77;;;3.70;76.00;;;;;;5034480;28;20487;-61
2020/12/31 09:06:34;;;;;;;11.10;9.43;;;3.90;75.70;;;;;;5037579;28;20057;-62
2020/12/31 09:08:59;;;;;;;10.63;9.10;;;3.80;75.60;;;;;;5034889;28;20045;-62
2020/12/31 09:11:27;;;;;;;11.98;9.35;;;3.90;75.60;;;;;;5034502;28;20117;-62
2020/12/31 09:13:53;;;;;;;12.07;9.88;;;3.80;75.70;;;;;;5035990;28;20056;-61
2020/12/31 09:16:19;;;;;;;11.10;9.95;;;3.90;75.50;;;;;;5049265;28;20025;-62
2020/12/31 09:18:44;;;;;;;13.82;10.65;;;3.90;75.10;;;;;;5044645;28;20060;-63
2020/12/31 09:21:13;;;;;;;12.20;10.63;;;3.90;75.20;;;;;;5047196;28;20033;-62
2020/12/31 09:23:39;;;;;;;14.68;12.45;;;4.00;75.00;;;;;;5032458;28;20033;-62
2020/12/31 09:26:05;;;;;;;13.65;11.20;;;4.00;75.00;;;;;;5038953;28;20044;-61
2020/12/31 09:28:31;;;;;;;14.25;10.63;;;4.00;74.90;;;;;;5021788;28;20049;-62
2020/12/31 09:31:12;;;;;;;11.80;10.48;;;4.00;74.60;;;;;;5047129;28;20037;-61
2020/12/31 09:33:38;;;;;;;13.85;10.38;;;4.00;74.40;;;;;;5004753;28;20507;-62
2020/12/31 09:36:03;;;;;;;13.07;10.60;;;4.00;74.40;;;;;;5034339;28;20059;-61
2020/12/31 09:38:29;;;;;;;13.95;11.13;;;4.00;74.60;;;;;;5044695;28;20025;-61
2020/12/31 09:40:54;;;;;;;10.75;8.85;;;4.10;74.10;;;;;;5057457;28;20385;-62
2020/12/31 09:43:20;;;;;;;11.27;8.75;;;4.10;73.90;;;;;;5059881;28;20072;-62
2020/12/31 09:45:45;;;;;;;12.80;10.23;;;4.10;74.00;;;;;;5056369;28;20171;-62
2020/12/31 09:48:11;;;;;;;14.23;10.02;;;4.10;74.20;;;;;;5030366;28;20087;-64
2020/12/31 09:50:36;;;;;;;12.38;10.45;;;4.00;74.70;;;;;;5053512;28;20045;-62
2020/12/31 09:53:02;;;;;;;12.10;10.20;;;4.00;75.10;;;;;;5047540;28;20029;-62
2020/12/31 09:55:28;;;;;;;13.13;11.13;;;3.90;75.10;;;;;;5056485;28;20119;-62
2020/12/31 09:57:53;;;;;;;12.63;10.80;;;4.00;75.00;;;;;;5043521;28;20033;-61
2020/12/31 10:00:19;;;;;;;12.65;10.75;;;4.00;74.80;;;;;;5045995;28;20052;-62
2020/12/31 10:02:44;;;;;;;11.80;10.60;;;4.00;74.60;;;;;;5029919;28;20041;-61
2020/12/31 10:05:10;;;;;;;14.35;11.65;;;4.10;74.60;;;;;;5037434;28;20083;-63
2020/12/31 10:07:36;;;;;;;10.73;9.35;;;4.10;74.20;;;;;;5031699;28;20048;-61
2020/12/31 10:10:01;;;;;;;12.07;9.65;;;4.10;74.10;;;;;;5022726;28;20461;-61
2020/12/31 10:12:27;;;;;;;11.63;9.82;;;4.10;74.10;;;;;;5045708;28;20048;-61
2020/12/31 10:14:53;;;;;;;10.95;9.45;;;4.10;74.20;;;;;;5039289;28;20033;-61
2020/12/31 10:17:19;;;;;;;11.23;9.63;;;4.20;73.90;;;;;;5035473;28;20045;-61
2020/12/31 10:19:45;;;;;;;11.63;9.90;;;4.20;73.80;;;;;;5041058;28;20497;-61
2020/12/31 10:22:10;;;;;;;10.73;8.43;;;4.20;73.40;;;;;;5033255;28;20555;-62
2020/12/31 10:24:36;;;;;;;11.60;9.68;;;4.30;73.60;;;;;;5032935;28;20041;-62
2020/12/31 10:27:03;;;;;;;9.88;7.75;;;4.30;73.50;;;;;;5032814;28;20044;-62
2020/12/31 10:29:29;;;;;;;8.32;7.07;;;4.40;73.10;;;;;;5039758;28;20476;-61
2020/12/31 10:31:55;;;;;;;8.40;6.80;;;4.50;72.10;;;;;;5047297;28;20041;-63
2020/12/31 10:34:23;;;;;;;9.93;7.53;;;4.50;71.90;;;;;;5042044;28;20036;-63
2020/12/31 10:36:58;;;;;;;6.97;6.30;;;4.60;71.30;;;;;;5046301;28;20116;-61
2020/12/31 10:39:25;;;;;;;7.65;6.68;;;4.60;71.00;;;;;;5035944;28;20033;-62
2020/12/31 10:41:51;;;;;;;7.60;6.20;;;4.60;71.00;;;;;;5024582;28;20069;-62
2020/12/31 10:44:17;;;;;;;7.32;6.28;;;4.60;70.90;;;;;;5025863;28;20393;-61
2020/12/31 10:46:43;;;;;;;7.70;6.80;;;4.60;70.60;;;;;;5045483;28;20086;-62
2020/12/31 10:49:09;;;;;;;9.38;6.65;;;4.60;71.00;;;;;;5035413;28;20446;-61
2020/12/31 10:51:36;;;;;;;7.88;7.07;;;4.70;71.00;;;;;;5039247;28;20376;-60
2020/12/31 10:54:03;;;;;;;7.60;6.80;;;4.70;70.70;;;;;;5044407;28;20030;-60
2020/12/31 10:56:28;;;;;;;9.68;7.32;;;4.80;70.70;;;;;;5028793;28;20022;-62
2020/12/31 10:58:54;;;;;;;7.07;6.10;;;4.80;70.90;;;;;;5046419;28;20028;-62
2020/12/31 11:01:20;;;;;;;8.23;6.97;;;4.90;70.90;;;;;;4998511;28;20045;-62
2020/12/31 11:03:49;;;;;;;8.43;7.03;;;5.00;70.30;;;;;;5048966;28;20048;-62
2020/12/31 11:06:20;;;;;;;8.70;6.82;;;5.10;69.70;;;;;;5037486;28;20412;-62
2020/12/31 11:08:45;;;;;;;9.75;6.90;;;5.10;69.80;;;;;;5031417;28;20060;-60
2020/12/31 11:11:15;;;;;;;8.57;7.25;;;5.20;69.80;;;;;;5027784;28;20025;-63
2020/12/31 11:13:41;;;;;;;10.30;7.43;;;5.30;69.20;;;;;;5025584;28;20038;-64
2020/12/31 11:16:10;;;;;;;10.45;7.45;;;5.20;69.10;;;;;;5023588;28;20060;-62
2020/12/31 11:18:36;;;;;;;7.93;6.38;;;5.10;68.40;;;;;;5022941;28;20018;-61
2020/12/31 11:21:01;;;;;;;8.90;7.05;;;5.10;68.70;;;;;;5021814;28;20029;-63
2020/12/31 11:23:27;;;;;;;8.73;7.50;;;5.00;68.90;;;;;;5021127;28;20449;-62
2020/12/31 11:25:52;;;;;;;8.02;6.95;;;4.90;69.20;;;;;;5020615;28;20033;-62
2020/12/31 11:28:18;;;;;;;8.93;6.85;;;4.90;69.50;;;;;;5023758;28;20185;-62
2020/12/31 11:30:44;;;;;;;9.65;7.20;;;5.20;76.80;;;;;;5024290;28;20057;-61
2020/12/31 11:33:10;;;;;;;7.65;6.43;;;5.40;67.60;;;;;;5020125;28;20034;-62
2020/12/31 11:35:36;;;;;;;8.93;6.53;;;5.20;67.80;;;;;;5021643;28;20033;-61
2020/12/31 11:38:01;;;;;;;7.90;6.82;;;5.00;68.70;;;;;;5022650;28;20037;-61
2020/12/31 11:40:27;;;;;;;8.18;7.22;;;4.90;68.90;;;;;;5022343;28;20042;-62
2020/12/31 11:42:53;;;;;;;9.52;6.63;;;4.90;68.70;;;;;;5021082;28;20060;-61
2020/12/31 11:45:18;;;;;;;9.45;6.82;;;4.90;68.90;;;;;;5023203;28;20063;-62
2020/12/31 11:47:44;;;;;;;9.02;7.47;;;4.90;69.60;;;;;;5004726;28;20048;-60
2020/12/31 11:50:10;;;;;;;9.15;7.30;;;5.00;69.70;;;;;;5024807;28;20029;-62
2020/12/31 11:52:35;;;;;;;10.32;7.55;;;5.20;69.30;;;;;;5020839;28;20094;-62
2020/12/31 11:55:01;;;;;;;8.55;7.40;;;5.30;69.30;;;;;;5003142;28;20065;-62
2020/12/31 11:57:27;;;;;;;10.20;7.00;;;5.30;69.70;;;;;;5018583;28;20374;-61
2020/12/31 11:59:52;;;;;;;31.48;8.05;;;5.40;72.20;;;;;;4996018;28;20095;-60
2020/12/31 12:02:18;;;;;;;21.35;7.32;;;5.60;70.90;;;;;;5033016;28;20055;-62
2020/12/31 12:04:43;;;;;;;10.95;7.00;;;6.10;72.30;;;;;;5031612;28;20038;-61
2020/12/31 12:07:09;;;;;;;8.85;7.32;;;6.50;73.10;;;;;;5013722;28;20550;-61
2020/12/31 12:09:35;;;;;;;8.60;7.00;;;6.40;65.00;;;;;;5031709;28;20069;-62
2020/12/31 12:12:00;;;;;;;9.32;6.97;;;6.10;65.60;;;;;;5031493;28;20049;-62
2020/12/31 12:14:26;;;;;;;9.57;7.18;;;5.80;66.80;;;;;;5033331;28;20399;-63
2020/12/31 12:16:51;;;;;;;9.27;7.82;;;5.60;67.00;;;;;;5024276;28;20121;-62
2020/12/31 12:19:18;;;;;;;9.40;6.68;;;5.50;67.40;;;;;;5022230;28;20057;-62
2020/12/31 12:21:44;;;;;;;7.60;6.80;;;5.60;66.90;;;;;;5017420;28;20759;-62
2020/12/31 12:24:10;;;;;;;8.52;6.72;;;5.70;67.00;;;;;;5015175;28;20092;-61
2020/12/31 12:26:37;;;;;;;10.13;6.97;;;5.80;69.10;;;;;;5030167;28;20049;-62
2020/12/31 12:29:05;;;;;;;8.52;7.10;;;5.90;66.80;;;;;;5034973;28;20393;-62
2020/12/31 12:31:38;;;;;;;7.97;6.93;;;6.00;66.60;;;;;;5030473;28;20095;-63
2020/12/31 12:34:05;;;;;;;8.48;7.05;;;6.00;66.30;;;;;;5020702;28;20065;-61
2020/12/31 12:36:31;;;;;;;9.52;7.05;;;6.10;65.50;;;;;;5034752;28;20056;-61
2020/12/31 12:38:57;;;;;;;8.07;6.63;;;5.90;65.60;;;;;;5015075;28;20060;-62
2020/12/31 12:41:24;;;;;;;9.60;6.88;;;5.80;66.40;;;;;;5025154;28;20061;-63
2020/12/31 12:43:49;;;;;;;8.73;6.50;;;5.90;66.20;;;;;;5014874;28;20045;-61
2020/12/31 12:46:16;;;;;;;7.55;5.88;;;5.90;64.90;;;;;;5035143;28;20492;-61
2020/12/31 12:48:42;;;;;;;8.65;6.60;;;5.90;64.70;;;;;;5034777;28;20033;-61
2020/12/31 12:51:08;;;;;;;7.75;6.70;;;5.80;64.90;;;;;;5034171;28;20037;-63
2020/12/31 12:53:34;;;;;;;8.40;6.22;;;5.80;64.90;;;;;;5018199;28;20370;-60
2020/12/31 12:55:59;;;;;;;9.52;6.85;;;5.70;65.70;;;;;;5021975;28;20048;-63